EGBJ/GLO METAR and TAF weather

Enter ICAO airport designator
Station Type Date Time Source
EGBJ METAR 2018/12/12 16:50 UTC NOAA

EGBJ 121650Z 12013KT 9999 FEW025 SCT035 07/01 Q1018


Station Type Date Time Source
EGBJ Decoded METAR 2018/12/12 16:50 UTC NOAA

Staverton Private , United Kingdom (EGBJ) 51-54N 002-10W
Dec 12, 2018 - 11:50 AM EST / 2018.12.12 1650 UTC
Wind: from the ESE (120 degrees) at 15 MPH (13 KT):0
Visibility: greater than 7 mile(s):0
Sky conditions: partly cloudy
Temperature: 44 F (7 C)
Dew Point: 33 F (1 C)
Relative Humidity: 65%
Pressure (altimeter): 30.06 in. Hg (1018 hPa)
ob: EGBJ 121650Z 12013KT 9999 FEW025 SCT035 07/01 Q1018
cycle: 17

Station Type Date Time Source
EGBJ TAF UTC NOAA

Error!


Example: see airport list